Time;durP1;ratioP1;P1;durP2;ratioP2;P2;SDS_P1;SDS_P2;PMS_P1;PMS_P2;Temp;Humidity;BMP_temperature;BMP_pressure;BME280_temperature;BME280_humidity;BME280_pressure;Samples;Min_cycle;Max_cycle;Signal;HPM_P1;HPM_P2
2022/10/14 00:01:01;;;;;;;12.67;11.33;;;14.00;99.90;;;;;;6224600;23;20503;-83
2022/10/14 00:03:28;;;;;;;11.03;10.00;;;14.00;99.90;;;;;;6223891;23;20495;-83
2022/10/14 00:05:55;;;;;;;9.27;8.40;;;14.10;99.90;;;;;;6223695;23;20916;-83
2022/10/14 00:08:22;;;;;;;10.00;9.20;;;14.10;99.90;;;;;;6223975;23;20412;-83
2022/10/14 00:10:48;;;;;;;10.17;9.00;;;13.90;99.90;;;;;;6224540;23;20908;-83
2022/10/14 00:13:17;;;;;;;9.27;8.27;;;13.90;99.90;;;;;;6229871;23;20429;-83
2022/10/14 00:15:43;;;;;;;9.70;8.80;;;13.90;99.90;;;;;;6224655;23;20503;-83
2022/10/14 00:18:10;;;;;;;9.73;8.70;;;13.90;99.90;;;;;;6224062;23;20420;-83
2022/10/14 00:20:37;;;;;;;9.70;8.80;;;13.90;99.90;;;;;;6223302;23;20444;-83
2022/10/14 00:23:04;;;;;;;10.30;9.30;;;13.90;99.90;;;;;;6224695;23;20431;-83
2022/10/14 00:25:31;;;;;;;11.83;10.73;;;13.90;99.90;;;;;;6224740;23;20543;-83
2022/10/14 00:28:02;;;;;;;11.23;9.53;;;13.90;99.90;;;;;;6223857;23;20409;-83
2022/10/14 00:30:30;;;;;;;14.13;9.33;;;13.90;99.90;;;;;;6224033;23;20393;-83
2022/10/14 00:32:57;;;;;;;10.47;9.40;;;13.90;99.90;;;;;;6224610;23;20444;-83
2022/10/14 00:35:23;;;;;;;10.30;9.20;;;13.90;99.90;;;;;;6224565;23;20416;-83
2022/10/14 00:37:50;;;;;;;10.03;9.20;;;13.90;99.90;;;;;;6224370;23;20415;-83
2022/10/14 00:40:17;;;;;;;9.77;8.87;;;13.80;99.90;;;;;;6224172;23;20459;-83
2022/10/14 00:42:44;;;;;;;10.27;9.30;;;13.80;99.90;;;;;;6224630;23;20440;-82
2022/10/14 00:45:19;;;;;;;10.33;9.40;;;13.90;99.90;;;;;;6224421;23;20477;-83
2022/10/14 00:47:50;;;;;;;10.60;9.70;;;13.90;99.90;;;;;;6224734;23;20401;-83
2022/10/14 00:50:17;;;;;;;9.93;9.03;;;13.90;99.90;;;;;;6224777;23;20400;-83
2022/10/14 00:52:45;;;;;;;9.20;8.30;;;14.00;99.90;;;;;;6224521;23;20433;-83
2022/10/14 00:55:15;;;;;;;10.47;9.47;;;14.00;99.90;;;;;;6223913;23;20749;-83
2022/10/14 00:57:44;;;;;;;11.17;10.20;;;14.00;99.90;;;;;;6224381;23;20393;-83
2022/10/14 01:00:14;;;;;;;13.23;10.00;;;14.00;99.90;;;;;;6224977;23;20415;-83
2022/10/14 01:02:41;;;;;;;11.90;9.63;;;14.00;99.90;;;;;;6224381;23;20429;-83
2022/10/14 01:05:11;;;;;;;9.77;8.73;;;14.10;99.90;;;;;;6224663;23;20423;-83
2022/10/14 01:07:49;;;;;;;11.73;10.67;;;14.00;99.90;;;;;;6229272;23;20393;-82
2022/10/14 01:10:24;;;;;;;10.50;9.07;;;14.10;99.90;;;;;;6226248;23;20390;-83
2022/10/14 01:13:01;;;;;;;10.87;9.80;;;14.00;99.90;;;;;;6225789;23;20482;-83
2022/10/14 01:15:37;;;;;;;10.97;9.87;;;14.00;99.90;;;;;;6224433;23;20393;-83
2022/10/14 01:18:23;;;;;;;12.23;9.67;;;14.00;99.90;;;;;;6224568;23;20399;-83
2022/10/14 01:21:03;;;;;;;11.43;10.23;;;14.00;99.90;;;;;;6224794;23;20451;-83
2022/10/14 01:23:44;;;;;;;9.70;8.70;;;14.00;99.90;;;;;;6224511;23;20733;-83
2022/10/14 01:26:26;;;;;;;12.73;10.83;;;14.00;99.90;;;;;;6224258;23;20399;-83
2022/10/14 01:29:06;;;;;;;10.83;9.40;;;14.00;99.90;;;;;;6224265;23;20399;-83
2022/10/14 01:31:38;;;;;;;10.73;9.70;;;14.00;99.90;;;;;;6224768;23;20445;-83
2022/10/14 01:34:09;;;;;;;11.17;10.17;;;14.00;99.90;;;;;;6222372;23;20770;-83
2022/10/14 01:36:42;;;;;;;9.40;8.60;;;14.00;99.90;;;;;;6219757;23;20390;-82
2022/10/14 01:39:13;;;;;;;11.30;10.20;;;14.00;99.90;;;;;;6220780;23;20397;-82
2022/10/14 01:41:46;;;;;;;12.03;10.87;;;14.10;99.90;;;;;;6219715;23;20429;-82
2022/10/14 01:44:17;;;;;;;10.90;9.80;;;14.10;99.90;;;;;;6220493;23;20441;-83
2022/10/14 01:46:50;;;;;;;11.37;10.17;;;14.10;99.90;;;;;;6219632;23;20389;-82
2022/10/14 01:49:26;;;;;;;10.63;9.67;;;13.90;99.90;;;;;;6220082;23;20399;-82
2022/10/14 01:51:59;;;;;;;11.57;9.17;;;13.90;99.90;;;;;;6220211;23;20393;-83
2022/10/14 01:54:32;;;;;;;12.53;9.87;;;14.00;99.90;;;;;;6220611;23;20435;-83
2022/10/14 01:57:03;;;;;;;12.63;10.87;;;14.00;99.90;;;;;;6219679;23;20393;-82
2022/10/14 01:59:32;;;;;;;11.90;10.70;;;13.90;99.90;;;;;;6219555;23;20725;-83
2022/10/14 02:02:00;;;;;;;11.73;10.50;;;13.80;99.90;;;;;;6220451;23;20451;-80
2022/10/14 02:04:27;;;;;;;16.03;10.90;;;13.50;99.90;;;;;;6220547;23;20435;-82
2022/10/14 02:07:04;;;;;;;12.00;10.40;;;13.50;99.90;;;;;;6220112;23;20413;-83
2022/10/14 02:09:40;;;;;;;11.03;9.83;;;13.50;99.90;;;;;;6219518;23;20734;-83
2022/10/14 02:12:19;;;;;;;11.37;10.20;;;13.70;99.90;;;;;;6220276;23;20396;-82
2022/10/14 02:14:54;;;;;;;10.03;9.10;;;13.70;99.90;;;;;;6220592;23;20389;-83
2022/10/14 02:17:28;;;;;;;17.30;10.27;;;13.80;99.90;;;;;;6220181;23;20471;-83
2022/10/14 02:20:00;;;;;;;13.53;10.87;;;13.80;99.90;;;;;;6219362;23;20456;-83
2022/10/14 02:22:31;;;;;;;11.90;10.70;;;13.80;99.90;;;;;;6219802;23;20432;-83
2022/10/14 02:25:01;;;;;;;17.23;11.80;;;13.80;99.90;;;;;;6219422;23;20424;-83
2022/10/14 02:27:31;;;;;;;12.07;10.10;;;13.80;99.90;;;;;;6223099;23;20400;-81
2022/10/14 02:29:59;;;;;;;10.47;9.23;;;13.90;99.90;;;;;;6226291;23;20404;-80
2022/10/14 02:32:28;;;;;;;11.97;10.00;;;14.00;99.90;;;;;;6224931;23;20405;-82
2022/10/14 02:34:57;;;;;;;12.43;11.13;;;14.00;99.90;;;;;;6220408;23;20519;-83
2022/10/14 02:37:26;;;;;;;11.13;10.03;;;14.00;99.90;;;;;;6220672;23;20634;-82
2022/10/14 02:39:59;;;;;;;11.93;10.10;;;14.10;99.90;;;;;;6220603;23;20405;-82
2022/10/14 02:42:27;;;;;;;11.70;10.57;;;14.10;99.90;;;;;;6220427;23;20421;-83
2022/10/14 02:44:55;;;;;;;10.97;9.87;;;14.20;99.90;;;;;;6221172;23;20412;-83
2022/10/14 02:47:22;;;;;;;11.10;10.10;;;14.20;99.90;;;;;;6222079;23;20420;-83
2022/10/14 02:49:51;;;;;;;13.47;10.83;;;14.20;99.90;;;;;;6221224;23;21011;-83
2022/10/14 02:52:18;;;;;;;11.93;10.73;;;14.20;99.90;;;;;;6221951;23;20752;-83
2022/10/14 02:54:45;;;;;;;12.73;10.57;;;14.20;99.90;;;;;;6222174;23;20420;-83
2022/10/14 02:57:12;;;;;;;12.60;10.30;;;14.30;99.90;;;;;;6226268;23;20411;-82
2022/10/14 02:59:39;;;;;;;11.53;10.13;;;14.30;99.90;;;;;;6222408;23;20423;-82
2022/10/14 03:02:07;;;;;;;11.53;10.57;;;14.30;99.90;;;;;;6221517;23;20514;-83
2022/10/14 03:04:33;;;;;;;12.27;11.17;;;14.30;99.90;;;;;;6222118;23;20475;-82
2022/10/14 03:07:02;;;;;;;11.03;9.93;;;14.40;99.90;;;;;;6222505;23;20467;-83
2022/10/14 03:09:29;;;;;;;10.90;10.00;;;14.40;99.90;;;;;;6221967;23;20423;-82
2022/10/14 03:11:55;;;;;;;10.37;9.33;;;14.30;99.90;;;;;;6222646;23;20409;-83
2022/10/14 03:14:22;;;;;;;10.60;9.70;;;14.40;99.90;;;;;;6222432;23;20758;-83
2022/10/14 03:16:49;;;;;;;12.00;10.20;;;14.40;99.90;;;;;;6222115;23;20416;-82
2022/10/14 03:19:16;;;;;;;11.60;10.43;;;14.40;99.90;;;;;;6222101;23;20417;-83
2022/10/14 03:21:43;;;;;;;11.03;10.03;;;14.40;99.90;;;;;;6221343;23;20442;-83
2022/10/14 03:24:11;;;;;;;13.07;11.07;;;14.40;99.90;;;;;;6222458;23;20433;-83
2022/10/14 03:26:38;;;;;;;17.10;11.37;;;14.40;99.90;;;;;;6221044;23;20415;-82
2022/10/14 03:29:05;;;;;;;11.07;9.93;;;14.30;99.90;;;;;;6221598;23;20412;-83
2022/10/14 03:31:31;;;;;;;10.37;9.23;;;14.30;99.90;;;;;;6221654;23;20409;-82
2022/10/14 03:33:58;;;;;;;11.63;10.40;;;14.30;99.90;;;;;;6221943;23;20443;-83
2022/10/14 03:36:25;;;;;;;12.47;11.33;;;14.20;99.90;;;;;;6222614;23;20416;-83
2022/10/14 03:38:52;;;;;;;12.20;10.90;;;14.20;99.90;;;;;;6221509;23;20412;-83
2022/10/14 03:41:20;;;;;;;11.50;10.37;;;14.20;99.90;;;;;;6222227;23;20444;-83
2022/10/14 03:43:47;;;;;;;13.73;11.40;;;14.20;99.90;;;;;;6221077;23;20433;-82
2022/10/14 03:46:14;;;;;;;12.80;11.50;;;14.20;99.90;;;;;;6221535;23;20988;-82
2022/10/14 03:48:41;;;;;;;10.47;9.40;;;14.10;99.90;;;;;;6221732;23;20409;-83
2022/10/14 03:51:07;;;;;;;11.90;10.80;;;14.10;99.90;;;;;;6221853;23;20413;-81
2022/10/14 03:53:34;;;;;;;12.17;10.97;;;14.00;99.90;;;;;;6225951;23;20837;-84
2022/10/14 03:56:01;;;;;;;14.23;12.83;;;14.00;99.90;;;;;;6220704;23;20410;-83
2022/10/14 03:58:29;;;;;;;12.87;11.57;;;13.90;99.90;;;;;;6221029;23;20409;-83
2022/10/14 04:00:56;;;;;;;15.40;12.07;;;13.90;99.90;;;;;;6222183;23;20412;-83
2022/10/14 04:03:23;;;;;;;13.90;12.17;;;13.80;99.90;;;;;;6221097;23;20520;-83
2022/10/14 04:05:49;;;;;;;13.97;12.40;;;13.80;99.90;;;;;;6220896;23;20884;-82
2022/10/14 04:08:16;;;;;;;13.37;11.97;;;13.80;99.90;;;;;;6220561;23;20423;-83
2022/10/14 04:10:43;;;;;;;14.33;11.30;;;13.80;99.90;;;;;;6221196;23;20410;-82
2022/10/14 04:13:10;;;;;;;15.70;12.23;;;13.80;99.90;;;;;;6221615;23;20425;-83
2022/10/14 04:15:38;;;;;;;14.37;12.97;;;13.70;99.90;;;;;;6221918;23;20412;-83
2022/10/14 04:18:05;;;;;;;14.87;13.40;;;13.70;99.90;;;;;;6221659;23;20906;-82
2022/10/14 04:20:32;;;;;;;14.07;12.57;;;13.70;99.90;;;;;;6222094;23;20404;-83
2022/10/14 04:22:59;;;;;;;19.43;15.30;;;13.70;99.90;;;;;;6222332;23;20521;-84
2022/10/14 04:25:26;;;;;;;14.90;13.50;;;13.70;99.90;;;;;;6221532;23;20413;-82
2022/10/14 04:27:53;;;;;;;14.40;12.87;;;13.70;99.90;;;;;;6217919;23;20405;-83
2022/10/14 04:30:19;;;;;;;14.77;13.17;;;13.70;99.90;;;;;;6217907;23;20405;-83
2022/10/14 04:32:48;;;;;;;15.20;13.70;;;13.70;99.90;;;;;;6216928;23;20437;-84
2022/10/14 04:35:15;;;;;;;17.47;13.47;;;13.70;99.90;;;;;;6217479;23;20393;-83
2022/10/14 04:37:41;;;;;;;15.70;13.80;;;13.70;99.90;;;;;;6217168;23;20467;-85
2022/10/14 04:40:09;;;;;;;14.80;13.30;;;13.60;99.90;;;;;;6217396;23;20424;-84
2022/10/14 04:42:44;;;;;;;14.63;13.03;;;13.60;99.90;;;;;;6216943;23;20445;-85
2022/10/14 04:45:11;;;;;;;18.73;14.90;;;13.70;99.90;;;;;;6217404;23;20387;-84
2022/10/14 04:47:40;;;;;;;14.40;13.00;;;13.60;99.90;;;;;;6221958;23;20423;-85
2022/10/14 04:50:09;;;;;;;16.67;15.00;;;13.60;99.90;;;;;;6216477;23;20417;-85
2022/10/14 04:52:40;;;;;;;16.83;14.20;;;13.60;99.90;;;;;;6216622;23;20409;-85
2022/10/14 04:55:08;;;;;;;16.27;14.67;;;13.70;99.90;;;;;;6216715;23;20416;-86
2022/10/14 04:57:36;;;;;;;19.03;15.37;;;13.70;99.90;;;;;;6216683;23;20431;-85
2022/10/14 05:00:03;;;;;;;16.53;14.77;;;13.70;99.90;;;;;;6215977;23;20452;-85
2022/10/14 05:02:30;;;;;;;17.20;15.50;;;13.80;99.90;;;;;;6217144;23;20820;-85
2022/10/14 05:04:57;;;;;;;19.73;16.53;;;13.80;99.90;;;;;;6216748;23;20436;-85
2022/10/14 05:07:25;;;;;;;17.30;13.93;;;13.80;99.90;;;;;;6216738;23;20405;-84
2022/10/14 05:09:53;;;;;;;18.37;15.57;;;13.80;99.90;;;;;;6217645;23;20412;-84
2022/10/14 05:12:19;;;;;;;18.27;15.00;;;13.80;99.90;;;;;;6217725;23;20459;-84
2022/10/14 05:14:46;;;;;;;20.50;16.07;;;13.80;99.90;;;;;;6216880;23;20441;-83
2022/10/14 05:17:13;;;;;;;16.83;14.97;;;13.70;99.90;;;;;;6218273;23;20463;-84
2022/10/14 05:19:40;;;;;;;16.80;15.17;;;13.70;99.90;;;;;;6220898;23;20401;-81
2022/10/14 05:22:06;;;;;;;18.10;15.50;;;13.70;99.90;;;;;;6225385;23;20444;-81
2022/10/14 05:24:34;;;;;;;19.27;15.23;;;13.70;99.90;;;;;;6225934;23;20421;-82
2022/10/14 05:27:01;;;;;;;17.83;14.93;;;13.70;99.90;;;;;;6217925;23;20438;-84
2022/10/14 05:29:28;;;;;;;18.20;15.70;;;13.60;99.90;;;;;;6216896;23;20435;-83
2022/10/14 05:31:55;;;;;;;20.93;16.97;;;13.60;99.90;;;;;;6217541;23;20412;-84
2022/10/14 05:34:22;;;;;;;17.60;15.80;;;13.60;99.90;;;;;;6217020;23;20986;-84
2022/10/14 05:36:49;;;;;;;16.87;15.17;;;13.60;99.90;;;;;;6217474;23;20439;-83
2022/10/14 05:39:15;;;;;;;18.70;16.70;;;13.60;99.90;;;;;;6217427;23;20764;-83
2022/10/14 05:41:43;;;;;;;16.93;15.10;;;13.60;99.90;;;;;;6221317;23;20738;-84
2022/10/14 05:44:11;;;;;;;19.50;15.93;;;13.60;99.90;;;;;;6217924;23;20436;-84
2022/10/14 05:46:37;;;;;;;17.83;15.50;;;13.70;99.90;;;;;;6217595;23;20416;-83
2022/10/14 05:49:05;;;;;;;17.70;15.40;;;13.70;99.90;;;;;;6217309;23;20431;-84
2022/10/14 05:51:32;;;;;;;19.83;15.77;;;13.60;99.90;;;;;;6217458;23;20405;-83
2022/10/14 05:53:59;;;;;;;17.30;15.50;;;13.60;99.90;;;;;;6217243;23;20734;-84
2022/10/14 05:56:26;;;;;;;15.73;14.13;;;13.60;99.90;;;;;;6217320;23;20412;-84
2022/10/14 05:58:54;;;;;;;17.67;15.77;;;13.70;99.90;;;;;;6216863;23;20431;-84
2022/10/14 06:01:21;;;;;;;18.30;16.43;;;13.70;99.90;;;;;;6217528;23;20807;-84
2022/10/14 06:03:50;;;;;;;15.40;13.83;;;13.70;99.90;;;;;;6217280;23;20449;-84
2022/10/14 06:06:16;;;;;;;18.10;16.20;;;13.80;99.90;;;;;;6217069;23;20408;-84
2022/10/14 06:08:43;;;;;;;16.63;14.20;;;13.80;99.90;;;;;;6217089;23;20416;-84
2022/10/14 06:11:10;;;;;;;18.50;14.67;;;13.80;99.90;;;;;;6217125;23;20408;-83
2022/10/14 06:13:38;;;;;;;16.20;14.57;;;13.80;99.90;;;;;;6217953;23;20427;-84
2022/10/14 06:16:07;;;;;;;18.77;16.83;;;13.80;99.90;;;;;;6218146;23;20723;-84
2022/10/14 06:18:35;;;;;;;17.97;15.93;;;13.90;99.90;;;;;;6217379;23;20415;-84
2022/10/14 06:21:02;;;;;;;16.37;14.10;;;13.90;99.90;;;;;;6217060;23;20413;-84
2022/10/14 06:23:29;;;;;;;16.47;14.67;;;13.90;99.90;;;;;;6217613;23;20610;-83
2022/10/14 06:25:56;;;;;;;15.77;14.40;;;14.00;99.90;;;;;;6217449;23;20413;-84
2022/10/14 06:28:23;;;;;;;17.30;14.80;;;14.10;99.90;;;;;;6217274;23;20405;-85
2022/10/14 06:30:50;;;;;;;16.10;14.40;;;14.10;99.90;;;;;;6217315;23;20416;-85
2022/10/14 06:33:18;;;;;;;23.60;17.83;;;14.10;99.90;;;;;;6217258;23;21051;-84
2022/10/14 06:35:45;;;;;;;16.50;14.67;;;14.10;99.90;;;;;;6223524;23;20401;-82
2022/10/14 06:38:12;;;;;;;16.50;14.67;;;14.10;99.90;;;;;;6220370;23;20855;-84
2022/10/14 06:40:39;;;;;;;17.60;15.10;;;14.10;99.90;;;;;;6217761;23;20720;-84
2022/10/14 06:43:05;;;;;;;16.60;13.90;;;14.20;99.90;;;;;;6217163;23;20444;-84
2022/10/14 06:45:32;;;;;;;15.93;13.70;;;14.20;99.90;;;;;;6217672;23;20404;-84
2022/10/14 06:47:59;;;;;;;16.67;14.97;;;14.20;99.90;;;;;;6217788;23;20412;-84
2022/10/14 06:50:27;;;;;;;16.83;14.90;;;14.30;99.90;;;;;;6217653;23;20411;-84
2022/10/14 06:52:54;;;;;;;17.73;15.90;;;14.30;99.90;;;;;;6217686;23;20752;-84
2022/10/14 06:55:21;;;;;;;17.70;15.47;;;14.40;99.90;;;;;;6217750;23;20416;-84
2022/10/14 06:57:47;;;;;;;16.83;14.73;;;14.40;99.90;;;;;;6218074;23;20416;-84
2022/10/14 07:00:15;;;;;;;19.40;16.17;;;14.50;99.90;;;;;;6217987;23;20442;-84
2022/10/14 07:02:42;;;;;;;16.60;13.77;;;14.50;99.90;;;;;;6217410;23;20451;-84
2022/10/14 07:05:10;;;;;;;16.67;14.97;;;14.50;99.90;;;;;;6217520;23;20416;-83
2022/10/14 07:07:38;;;;;;;17.77;12.47;;;14.50;99.90;;;;;;6217370;23;20427;-85
2022/10/14 07:10:05;;;;;;;13.97;12.67;;;14.60;99.90;;;;;;6218430;23;20407;-85
2022/10/14 07:12:32;;;;;;;15.53;12.53;;;14.60;99.90;;;;;;6218067;23;20400;-84
2022/10/14 07:14:59;;;;;;;14.17;12.70;;;14.70;99.90;;;;;;6217903;23;20407;-84
2022/10/14 07:17:25;;;;;;;19.27;13.50;;;14.70;99.90;;;;;;6217645;23;20415;-85
2022/10/14 07:19:52;;;;;;;14.10;12.60;;;14.70;99.90;;;;;;6217712;23;20423;-84
2022/10/14 07:22:19;;;;;;;13.70;12.30;;;14.70;99.90;;;;;;6217551;23;21030;-83
2022/10/14 07:24:47;;;;;;;15.73;13.37;;;14.70;99.90;;;;;;6218410;23;20404;-84
2022/10/14 07:27:15;;;;;;;16.37;11.70;;;14.80;99.90;;;;;;6217835;23;20472;-84
2022/10/14 07:29:41;;;;;;;13.77;10.50;;;14.80;99.90;;;;;;6217657;23;20412;-84
2022/10/14 07:32:08;;;;;;;13.87;12.40;;;14.90;99.90;;;;;;6229591;23;20405;-84
2022/10/14 07:34:35;;;;;;;11.27;10.27;;;15.00;99.90;;;;;;6230176;23;20439;-83
2022/10/14 07:37:02;;;;;;;13.70;10.13;;;15.10;99.90;;;;;;6232388;23;20408;-83
2022/10/14 07:39:29;;;;;;;9.93;9.03;;;15.30;99.90;;;;;;6232592;23;20401;-83
2022/10/14 07:41:57;;;;;;;10.30;9.30;;;15.30;99.90;;;;;;6232714;23;20400;-83
2022/10/14 07:44:23;;;;;;;14.07;11.20;;;15.40;99.90;;;;;;6232744;23;20459;-83
2022/10/14 07:46:50;;;;;;;14.70;9.50;;;15.40;99.90;;;;;;6232619;23;20413;-83
2022/10/14 07:49:20;;;;;;;10.63;9.70;;;15.50;99.90;;;;;;6233320;23;20408;-83
2022/10/14 07:51:47;;;;;;;13.33;8.93;;;15.60;99.90;;;;;;6233228;23;20409;-84
2022/10/14 07:54:16;;;;;;;12.27;9.00;;;15.70;99.90;;;;;;6230052;23;20465;-83
2022/10/14 07:56:44;;;;;;;9.93;8.17;;;15.70;99.90;;;;;;6228694;23;20405;-85
2022/10/14 07:59:13;;;;;;;7.80;6.80;;;15.70;99.90;;;;;;6227986;23;20405;-82
2022/10/14 08:01:39;;;;;;;7.03;6.40;;;15.80;99.90;;;;;;6228561;23;20405;-83
2022/10/14 08:04:06;;;;;;;9.20;7.90;;;15.80;99.90;;;;;;6230266;23;20475;-83
2022/10/14 08:06:33;;;;;;;7.30;6.70;;;15.80;99.90;;;;;;6227989;23;20915;-82
2022/10/14 08:09:00;;;;;;;9.40;8.50;;;15.90;99.90;;;;;;6227518;23;20508;-83
2022/10/14 08:11:29;;;;;;;8.43;7.37;;;15.90;99.90;;;;;;6227307;23;20410;-82
2022/10/14 08:13:58;;;;;;;9.17;7.03;;;16.00;99.90;;;;;;6230636;23;20512;-83
2022/10/14 08:16:29;;;;;;;7.60;6.90;;;16.10;99.90;;;;;;6228894;23;20412;-82
2022/10/14 08:18:57;;;;;;;7.20;6.60;;;16.20;99.90;;;;;;6229054;23;20409;-83
2022/10/14 08:21:24;;;;;;;8.93;7.20;;;16.20;99.90;;;;;;6228927;23;20414;-83
2022/10/14 08:23:51;;;;;;;7.57;6.87;;;16.20;99.90;;;;;;6225568;23;20545;-83
2022/10/14 08:26:22;;;;;;;7.20;6.60;;;16.20;99.90;;;;;;6231852;23;20512;-85
2022/10/14 08:28:49;;;;;;;8.60;7.80;;;16.30;99.90;;;;;;6232224;23;20409;-84
2022/10/14 08:31:16;;;;;;;8.37;7.57;;;16.30;99.90;;;;;;6232772;23;20415;-86
2022/10/14 08:33:45;;;;;;;6.00;5.37;;;16.30;99.90;;;;;;6230039;23;20435;-85
2022/10/14 08:36:12;;;;;;;8.60;6.70;;;16.40;99.90;;;;;;6228640;23;20401;-85
2022/10/14 08:38:42;;;;;;;5.73;5.13;;;16.50;99.90;;;;;;6231695;23;20495;-85
2022/10/14 08:41:39;;;;;;;12.00;6.83;;;16.60;99.90;;;;;;6225984;23;20416;-85
2022/10/14 08:44:17;;;;;;;6.83;6.30;;;16.70;99.90;;;;;;6218718;23;20525;-84
2022/10/14 08:46:47;;;;;;;6.27;5.67;;;16.70;99.90;;;;;;6227847;23;20478;-86
2022/10/14 08:49:24;;;;;;;5.67;5.13;;;16.70;99.90;;;;;;6225826;23;20413;-86
2022/10/14 08:51:55;;;;;;;4.83;4.43;;;16.80;99.90;;;;;;6224408;23;20448;-85
2022/10/14 08:54:31;;;;;;;6.20;5.77;;;16.80;99.90;;;;;;6224313;23;20421;-86
2022/10/14 08:56:59;;;;;;;5.07;4.67;;;16.80;99.90;;;;;;6229535;23;20397;-85
2022/10/14 08:59:28;;;;;;;5.40;4.97;;;16.90;99.90;;;;;;6222722;23;20410;-85
2022/10/14 09:02:06;;;;;;;6.90;5.20;;;16.90;99.90;;;;;;6226517;23;20660;-85
2022/10/14 09:04:35;;;;;;;4.73;4.23;;;16.90;99.90;;;;;;6222835;23;20454;-83
2022/10/14 09:07:02;;;;;;;6.33;5.83;;;16.90;99.90;;;;;;6222727;23;20466;-84
2022/10/14 09:09:37;;;;;;;4.20;3.90;;;16.90;99.90;;;;;;6220688;23;20740;-83
2022/10/14 09:12:11;;;;;;;5.43;5.03;;;16.90;99.90;;;;;;6225263;23;20395;-85
2022/10/14 09:14:42;;;;;;;5.47;4.40;;;16.90;99.90;;;;;;6226000;23;20456;-82
2022/10/14 09:17:15;;;;;;;5.93;3.80;;;16.90;99.90;;;;;;6227133;23;20477;-86
2022/10/14 09:19:52;;;;;;;5.27;4.30;;;16.80;99.90;;;;;;6223632;23;20390;-84
2022/10/14 09:22:21;;;;;;;4.80;4.40;;;16.90;99.90;;;;;;6230201;23;20396;-85
2022/10/14 09:24:48;;;;;;;4.93;4.43;;;16.90;99.90;;;;;;6218938;23;20449;-86
2022/10/14 09:27:17;;;;;;;4.80;4.40;;;17.00;99.90;;;;;;6219977;23;20776;-81
2022/10/14 09:29:54;;;;;;;5.50;5.13;;;17.00;99.90;;;;;;6226779;23;20436;-85
2022/10/14 09:32:31;;;;;;;4.17;3.83;;;17.10;99.90;;;;;;6231978;23;20489;-85
2022/10/14 09:35:00;;;;;;;5.03;4.63;;;17.30;99.90;;;;;;6223576;23;20505;-85
2022/10/14 09:37:29;;;;;;;4.93;4.53;;;17.50;99.90;;;;;;6219883;23;20561;-86
2022/10/14 09:40:00;;;;;;;4.77;4.37;;;17.50;99.90;;;;;;6218380;23;20479;-86
2022/10/14 09:42:42;;;;;;;5.20;4.50;;;17.70;99.90;;;;;;6231324;23;20413;-85
2022/10/14 09:45:12;;;;;;;6.33;5.73;;;17.70;99.90;;;;;;6231929;23;20390;-86
2022/10/14 09:47:45;;;;;;;4.33;4.03;;;17.80;99.90;;;;;;6229504;23;20425;-85
2022/10/14 09:50:25;;;;;;;3.73;3.43;;;17.90;99.90;;;;;;6231761;23;20419;-86
2022/10/14 09:53:01;;;;;;;5.00;4.40;;;17.90;99.90;;;;;;6230223;23;20435;-87
2022/10/14 09:55:38;;;;;;;4.90;4.47;;;18.00;99.90;;;;;;6224454;23;20445;-86
2022/10/14 09:58:34;;;;;;;4.80;4.30;;;18.00;99.90;;;;;;6222972;23;20788;-87
2022/10/14 10:01:14;;;;;;;4.90;4.50;;;18.00;99.90;;;;;;6221556;23;20422;-85
2022/10/14 10:04:26;;;;;;;4.73;4.33;;;18.20;99.90;;;;;;6219709;23;20555;-86
2022/10/14 10:06:56;;;;;;;6.30;4.30;;;18.40;99.90;;;;;;6222116;23;20422;-84
2022/10/14 10:09:23;;;;;;;4.30;4.00;;;18.60;99.90;;;;;;6223779;23;20416;-84
2022/10/14 10:12:02;;;;;;;5.47;4.40;;;18.70;99.90;;;;;;6224171;23;20408;-85
2022/10/14 10:14:32;;;;;;;6.07;4.63;;;18.80;99.90;;;;;;6225791;23;20455;-85
2022/10/14 10:17:13;;;;;;;4.17;3.77;;;18.90;99.90;;;;;;6230893;23;20423;-85
2022/10/14 10:19:42;;;;;;;4.40;4.00;;;19.00;99.90;;;;;;6220447;23;20411;-84
2022/10/14 10:22:22;;;;;;;5.23;4.40;;;19.10;99.90;;;;;;6221466;23;20485;-85
2022/10/14 10:24:51;;;;;;;4.20;3.90;;;19.20;99.90;;;;;;6222648;23;20436;-86
2022/10/14 10:27:21;;;;;;;4.80;3.90;;;19.20;99.90;;;;;;6222779;23;20412;-84
2022/10/14 10:29:48;;;;;;;3.50;3.20;;;19.10;99.90;;;;;;6220336;23;20435;-86
2022/10/14 10:32:20;;;;;;;4.90;3.80;;;18.80;99.90;;;;;;6222745;23;20419;-84
2022/10/14 10:35:06;;;;;;;6.63;5.00;;;18.70;99.90;;;;;;6220892;23;20426;-85
2022/10/14 10:37:47;;;;;;;4.10;3.70;;;18.50;99.90;;;;;;6226883;23;20917;-86
2022/10/14 10:40:47;;;;;;;4.77;3.87;;;18.50;99.90;;;;;;6221192;23;20514;-86
2022/10/14 10:43:32;;;;;;;3.03;2.83;;;18.50;99.90;;;;;;6154265;23;20463;-85
2022/10/14 10:46:10;;;;;;;5.00;4.13;;;18.50;99.90;;;;;;6221189;23;20403;-85
2022/10/14 10:48:44;;;;;;;5.43;3.70;;;18.50;99.90;;;;;;6219785;23;20457;-86
2022/10/14 10:51:14;;;;;;;3.33;3.03;;;18.30;99.90;;;;;;6221055;23;20417;-85
2022/10/14 10:54:00;;;;;;;3.87;3.47;;;18.10;99.90;;;;;;6220755;23;20429;-84
2022/10/14 10:56:33;;;;;;;4.73;4.00;;;18.10;99.90;;;;;;6220182;23;20778;-84
2022/10/14 10:59:30;;;;;;;3.97;3.70;;;18.20;99.90;;;;;;6227938;23;20405;-83
2022/10/14 11:02:32;;;;;;;4.63;4.23;;;18.10;99.90;;;;;;6234314;23;20707;-84
2022/10/14 11:05:06;;;;;;;3.63;3.33;;;18.20;99.90;;;;;;6204452;23;20454;-83
2022/10/14 11:13:46;;;;;;;7.10;4.40;;;17.60;99.90;;;;;;6238384;23;20455;-83
2022/10/14 11:16:25;;;;;;;4.30;3.90;;;17.60;99.90;;;;;;6235702;23;20455;-83
2022/10/14 11:19:00;;;;;;;4.77;4.30;;;17.50;99.90;;;;;;6234920;23;20858;-83
2022/10/14 11:21:36;;;;;;;5.00;4.20;;;17.30;99.90;;;;;;6235022;23;20386;-82
2022/10/14 11:24:09;;;;;;;6.10;3.90;;;17.00;99.90;;;;;;6234897;23;20485;-83
2022/10/14 11:26:59;;;;;;;5.73;4.90;;;17.00;99.90;;;;;;6234622;23;20546;-83
2022/10/14 11:29:45;;;;;;;4.60;4.17;;;16.80;99.90;;;;;;6233864;23;20400;-83
2022/10/14 11:32:21;;;;;;;5.30;4.80;;;16.70;99.90;;;;;;6234445;23;20695;-83
2022/10/14 11:34:59;;;;;;;5.70;4.67;;;16.50;99.90;;;;;;6234243;23;20473;-83
2022/10/14 11:37:34;;;;;;;6.40;4.43;;;16.60;99.90;;;;;;6233301;23;20454;-83
2022/10/14 11:40:07;;;;;;;4.73;3.90;;;16.70;99.90;;;;;;6233178;23;20470;-83
2022/10/14 11:42:51;;;;;;;4.40;4.00;;;16.80;99.90;;;;;;6234124;23;20466;-83
2022/10/14 11:45:41;;;;;;;3.90;3.50;;;16.80;99.90;;;;;;6234319;23;20430;-83
2022/10/14 11:48:21;;;;;;;4.50;4.10;;;17.10;99.90;;;;;;6234406;23;20401;-83
2022/10/14 11:50:53;;;;;;;4.90;4.40;;;17.30;99.90;;;;;;6233320;23;20411;-82
2022/10/14 11:53:24;;;;;;;6.67;4.20;;;17.40;99.90;;;;;;6233004;23;20498;-82
2022/10/14 11:56:02;;;;;;;4.93;4.20;;;17.60;99.90;;;;;;6233272;23;20482;-83
2022/10/14 11:58:34;;;;;;;4.00;3.70;;;17.70;99.90;;;;;;6233559;23;20423;-82
2022/10/14 12:01:06;;;;;;;4.53;3.70;;;17.80;99.90;;;;;;6232290;23;20477;-83
2022/10/14 12:03:47;;;;;;;4.23;3.83;;;18.00;99.90;;;;;;6232599;23;20432;-82
2022/10/14 12:06:19;;;;;;;4.13;3.03;;;18.10;99.90;;;;;;6233432;23;20397;-83
2022/10/14 12:08:50;;;;;;;5.27;4.53;;;18.30;99.90;;;;;;6236846;23;20433;-83
2022/10/14 12:11:26;;;;;;;4.40;4.00;;;18.30;99.90;;;;;;6233446;23;20400;-83
2022/10/14 12:14:00;;;;;;;5.67;3.90;;;18.30;99.90;;;;;;6233178;23;20443;-83
2022/10/14 12:16:27;;;;;;;3.93;3.63;;;18.40;99.90;;;;;;6232993;23;20410;-83
2022/10/14 12:18:57;;;;;;;4.50;3.40;;;18.50;99.90;;;;;;6232568;23;20408;-83
2022/10/14 12:21:32;;;;;;;3.17;2.93;;;18.60;99.90;;;;;;6233111;23;20447;-83
2022/10/14 12:24:03;;;;;;;2.70;2.50;;;18.40;99.90;;;;;;6232736;23;21003;-83
2022/10/14 12:26:46;;;;;;;4.73;3.47;;;18.40;99.90;;;;;;6233501;23;20431;-83
2022/10/14 12:29:18;;;;;;;3.17;2.97;;;18.50;99.90;;;;;;6233520;23;20487;-83
2022/10/14 12:31:50;;;;;;;2.60;2.40;;;18.60;99.90;;;;;;6233778;23;20456;-82
2022/10/14 12:34:37;;;;;;;2.47;2.27;;;18.60;99.90;;;;;;6233783;23;20483;-83
2022/10/14 12:37:41;;;;;;;2.70;2.50;;;18.60;99.90;;;;;;6233236;23;20475;-83
2022/10/14 12:40:27;;;;;;;3.23;2.53;;;18.70;99.90;;;;;;6233474;23;20789;-83
2022/10/14 12:43:04;;;;;;;3.70;2.60;;;18.50;99.90;;;;;;6232698;23;20477;-83
2022/10/14 12:45:35;;;;;;;3.00;2.80;;;18.40;99.90;;;;;;6232703;23;20431;-83
2022/10/14 12:48:06;;;;;;;2.70;2.40;;;18.40;99.90;;;;;;6232702;23;20403;-83
2022/10/14 12:50:36;;;;;;;2.03;1.93;;;18.30;99.90;;;;;;6232789;23;20926;-83
2022/10/14 12:53:08;;;;;;;2.70;2.50;;;18.30;99.90;;;;;;6232389;23;20438;-83
2022/10/14 12:55:47;;;;;;;3.33;3.10;;;18.20;99.90;;;;;;6231778;23;20431;-83
2022/10/14 12:58:23;;;;;;;2.53;2.33;;;18.10;99.90;;;;;;6231072;23;20709;-82
2022/10/14 13:00:57;;;;;;;3.07;2.70;;;18.00;99.90;;;;;;6233027;23;20486;-83